Time;durP1;ratioP1;P1;durP2;ratioP2;P2;SDS_P1;SDS_P2;PMS_P1;PMS_P2;Temp;Humidity;BMP_temperature;BMP_pressure;BME280_temperature;BME280_humidity;BME280_pressure;Samples;Min_cycle;Max_cycle;Signal;HPM_P1;HPM_P2
2021/11/14 00:01:05;;;;;;;6.15;4.10;;;;;;;19.67;50.40;101590.78;5091864;28;20081;-75
2021/11/14 00:03:31;;;;;;;5.72;3.83;;;;;;;19.66;50.82;101594.38;5093179;28;20031;-75
2021/11/14 00:05:56;;;;;;;5.40;3.65;;;;;;;19.64;50.58;101588.34;5092671;28;20421;-76
2021/11/14 00:08:22;;;;;;;5.90;4.15;;;;;;;19.64;50.29;101591.84;5092082;28;20028;-74
2021/11/14 00:10:51;;;;;;;6.05;3.88;;;;;;;19.62;50.48;101592.94;5092653;28;20047;-73
2021/11/14 00:13:17;;;;;;;5.50;4.20;;;;;;;19.61;50.52;101593.88;5092292;28;20024;-76
2021/11/14 00:15:43;;;;;;;5.63;3.80;;;;;;;19.61;50.38;101593.88;5091826;28;20103;-76
2021/11/14 00:18:08;;;;;;;6.03;3.70;;;;;;;19.58;50.83;101593.16;5092405;28;20147;-75
2021/11/14 00:20:36;;;;;;;5.40;3.63;;;;;;;19.57;50.71;101599.41;5092561;28;20032;-75
2021/11/14 00:23:02;;;;;;;5.78;3.50;;;;;;;19.56;50.41;101603.00;5091514;28;20074;-77
2021/11/14 00:25:27;;;;;;;6.05;3.67;;;;;;;19.55;50.43;101603.97;5092498;28;20028;-75
2021/11/14 00:27:53;;;;;;;6.38;4.20;;;;;;;19.55;50.56;101614.53;5092512;28;20069;-75
2021/11/14 00:30:20;;;;;;;5.45;3.80;;;;;;;19.54;50.26;101612.84;5091529;28;20052;-76
2021/11/14 00:32:45;;;;;;;5.93;3.72;;;;;;;19.54;50.40;101612.03;5093344;28;20025;-76
2021/11/14 00:35:13;;;;;;;5.90;3.85;;;;;;;19.52;50.26;101612.13;5092745;28;20035;-77
2021/11/14 00:37:38;;;;;;;5.55;4.05;;;;;;;19.51;50.31;101618.38;5092670;28;20040;-75
2021/11/14 00:40:10;;;;;;;6.15;3.88;;;;;;;19.52;50.42;101616.59;5092333;28;20021;-74
2021/11/14 00:42:35;;;;;;;5.60;4.07;;;;;;;19.50;50.39;101623.75;5091859;28;20745;-76
2021/11/14 00:45:01;;;;;;;5.93;3.92;;;;;;;19.49;50.08;101620.28;5092202;28;20020;-76
2021/11/14 00:47:26;;;;;;;5.80;4.18;;;;;;;19.49;50.05;101632.69;5092902;28;20074;-75
2021/11/14 00:49:52;;;;;;;6.78;4.20;;;;;;;19.47;50.15;101626.63;5091746;28;20097;-75
2021/11/14 00:52:17;;;;;;;10.02;3.58;;;;;;;19.47;50.07;101618.72;5092243;28;20032;-76
2021/11/14 00:54:43;;;;;;;5.45;3.80;;;;;;;19.46;50.18;101627.63;5092404;28;20031;-75
2021/11/14 00:57:08;;;;;;;5.32;3.65;;;;;;;19.46;50.29;101628.44;5091015;28;20523;-75
2021/11/14 00:59:33;;;;;;;5.45;4.10;;;;;;;19.45;49.98;101623.28;5092173;28;20024;-77
2021/11/14 01:01:59;;;;;;;6.63;3.97;;;;;;;19.45;50.28;101626.75;5092009;28;20079;-74
2021/11/14 01:04:24;;;;;;;7.75;4.38;;;;;;;19.43;50.11;101628.69;5091532;28;20107;-75
2021/11/14 01:06:49;;;;;;;5.28;3.67;;;;;;;19.44;50.11;101629.50;5095127;28;20475;-75
2021/11/14 01:09:15;;;;;;;5.65;4.05;;;;;;;19.43;50.10;101633.97;5095697;28;20024;-76
2021/11/14 01:11:40;;;;;;;6.40;3.83;;;;;;;19.42;50.01;101634.91;5094887;28;20043;-74
2021/11/14 01:14:06;;;;;;;5.70;4.00;;;;;;;19.41;50.16;101630.59;5095178;28;20065;-75
2021/11/14 01:16:31;;;;;;;6.05;4.18;;;;;;;19.39;49.89;101630.72;5095651;28;20337;-75
2021/11/14 01:18:57;;;;;;;7.15;4.20;;;;;;;19.40;50.08;101640.31;5094484;28;20036;-75
2021/11/14 01:21:24;;;;;;;5.30;3.67;;;;;;;19.38;50.09;101646.69;5095766;28;20016;-75
2021/11/14 01:23:50;;;;;;;6.35;4.72;;;;;;;19.37;49.82;101642.34;5095252;28;20027;-75
2021/11/14 01:26:16;;;;;;;6.90;4.57;;;;;;;19.38;49.80;101654.63;5094378;28;20035;-76
2021/11/14 01:28:42;;;;;;;5.90;4.05;;;;;;;19.36;49.99;101651.25;5095353;28;20028;-75
2021/11/14 01:31:07;;;;;;;7.03;4.28;;;;;;;19.35;50.13;101660.13;5094753;28;20154;-76
2021/11/14 01:33:33;;;;;;;5.95;4.05;;;;;;;19.34;49.90;101655.78;5094762;28;20103;-76
2021/11/14 01:35:58;;;;;;;6.28;4.20;;;;;;;19.34;49.96;101664.56;5095158;28;20425;-74
2021/11/14 01:38:27;;;;;;;6.60;4.30;;;;;;;19.34;49.97;101664.56;5095421;28;20031;-74
2021/11/14 01:41:12;;;;;;;5.53;4.03;;;;;;;19.33;49.94;101668.16;5094871;28;20471;-74
2021/11/14 01:43:42;;;;;;;5.85;4.20;;;;;;;19.32;49.82;101660.34;5095373;28;20058;-75
2021/11/14 01:46:08;;;;;;;6.30;4.47;;;;;;;19.31;49.70;101667.44;5094659;28;20469;-75
2021/11/14 01:48:33;;;;;;;6.93;4.53;;;;;;;19.31;49.82;101674.50;5095195;28;20028;-75
2021/11/14 01:50:59;;;;;;;6.70;4.25;;;;;;;19.31;49.75;101674.50;5095284;28;20119;-75
2021/11/14 01:53:25;;;;;;;6.32;4.55;;;;;;;19.30;49.83;101680.75;5094913;28;20106;-74
2021/11/14 01:55:51;;;;;;;7.05;4.53;;;;;;;19.30;49.82;101675.47;5095711;28;20522;-75
2021/11/14 01:58:20;;;;;;;6.43;4.55;;;;;;;19.29;49.79;101679.06;5095789;28;20043;-75
2021/11/14 02:00:49;;;;;;;6.20;4.47;;;;;;;19.28;49.85;101677.38;5095331;28;20035;-74
2021/11/14 02:03:16;;;;;;;6.35;4.45;;;;;;;19.28;49.78;101680.00;5096039;28;20032;-75
2021/11/14 02:05:41;;;;;;;6.43;4.18;;;;;;;19.28;49.70;101677.38;5096151;28;20040;-76
2021/11/14 02:08:08;;;;;;;5.72;4.13;;;;;;;19.27;49.71;101683.63;5095087;28;20092;-75
2021/11/14 02:10:34;;;;;;;6.05;4.20;;;;;;;19.25;49.84;101681.09;5095994;28;20032;-75
2021/11/14 02:13:00;;;;;;;6.20;4.43;;;;;;;19.25;49.88;101686.38;5095427;28;20036;-75
2021/11/14 02:15:26;;;;;;;6.18;4.50;;;;;;;19.25;49.58;101694.31;5095183;28;20035;-75
2021/11/14 02:17:52;;;;;;;6.05;4.10;;;;;;;19.24;49.76;101697.06;5095494;28;20114;-75
2021/11/14 02:20:18;;;;;;;5.47;4.07;;;;;;;19.23;49.89;101701.50;5095710;28;20035;-76
2021/11/14 02:22:44;;;;;;;6.82;4.22;;;;;;;19.23;49.83;101700.66;5095388;28;20572;-75
2021/11/14 02:25:12;;;;;;;5.68;4.30;;;;;;;19.20;49.89;101702.56;5095655;28;20065;-75
2021/11/14 02:27:38;;;;;;;6.93;4.72;;;;;;;19.21;49.70;101706.88;5096267;28;20103;-75
2021/11/14 02:30:09;;;;;;;6.70;4.55;;;;;;;19.20;49.63;101705.22;5095698;28;20088;-75
2021/11/14 02:32:35;;;;;;;6.22;4.32;;;;;;;19.18;49.67;101704.50;5098688;28;20107;-76
2021/11/14 02:35:00;;;;;;;7.63;4.78;;;;;;;19.18;49.51;101708.91;5096777;28;20110;-75
2021/11/14 02:37:25;;;;;;;6.65;4.63;;;;;;;19.18;49.70;101715.06;5097505;28;20044;-75
2021/11/14 02:39:51;;;;;;;6.00;4.20;;;;;;;19.18;49.71;101717.69;5100957;28;20017;-75
2021/11/14 02:42:16;;;;;;;5.63;4.03;;;;;;;19.17;49.65;101718.66;5103892;28;20028;-74
2021/11/14 02:44:41;;;;;;;5.78;4.10;;;;;;;19.16;49.51;101719.59;5104857;28;20127;-74
2021/11/14 02:47:07;;;;;;;6.55;4.35;;;;;;;19.17;49.59;101720.47;5105019;28;20043;-76
2021/11/14 02:49:32;;;;;;;6.43;4.00;;;;;;;19.14;49.66;101723.31;5102142;28;20107;-76
2021/11/14 02:51:57;;;;;;;6.65;4.40;;;;;;;19.15;49.53;101720.56;5101302;28;20077;-75
2021/11/14 02:54:23;;;;;;;5.53;4.03;;;;;;;19.13;49.75;101725.09;5101630;28;20069;-74
2021/11/14 02:56:48;;;;;;;6.00;4.00;;;;;;;19.14;49.48;101734.72;5103230;28;20287;-75
2021/11/14 02:59:14;;;;;;;6.32;4.40;;;;;;;19.13;49.61;101737.47;5103141;28;20031;-75
2021/11/14 03:01:45;;;;;;;5.35;3.95;;;;;;;19.12;49.46;101741.91;5103197;28;20387;-75
2021/11/14 03:04:14;;;;;;;5.72;4.28;;;;;;;19.12;49.42;101731.34;5101787;28;20024;-74
2021/11/14 03:06:41;;;;;;;6.45;4.22;;;;;;;19.12;49.73;101738.41;5094561;28;20031;-74
2021/11/14 03:09:07;;;;;;;5.95;4.20;;;;;;;19.10;49.62;101732.41;5094647;28;20024;-76
2021/11/14 03:11:32;;;;;;;6.97;4.28;;;;;;;19.10;49.78;101732.41;5093935;28;20062;-75
2021/11/14 03:13:57;;;;;;;5.40;3.80;;;;;;;19.09;49.36;101734.22;5093686;28;20020;-75
2021/11/14 03:16:25;;;;;;;7.47;4.07;;;;;;;19.09;49.80;101738.63;5093801;28;20039;-75
2021/11/14 03:18:52;;;;;;;6.28;4.13;;;;;;;19.08;49.59;101734.31;5093911;28;20032;-75
2021/11/14 03:21:18;;;;;;;6.95;4.20;;;;;;;19.08;49.65;101740.44;5093177;28;20020;-75
2021/11/14 03:23:43;;;;;;;6.07;4.10;;;;;;;19.07;49.59;101744.03;5093359;28;20083;-74
2021/11/14 03:26:09;;;;;;;6.20;4.45;;;;;;;19.06;49.64;101747.63;5092358;28;20051;-75
2021/11/14 03:28:34;;;;;;;5.77;4.07;;;;;;;19.07;49.44;101756.41;5092445;28;20020;-75
2021/11/14 03:31:00;;;;;;;5.93;4.10;;;;;;;19.03;49.64;101745.22;5092890;28;20360;-76
2021/11/14 03:33:27;;;;;;;6.03;4.13;;;;;;;19.05;49.58;101753.03;5092502;28;20467;-76
2021/11/14 03:36:08;;;;;;;6.93;4.30;;;;;;;19.05;49.50;101753.88;5092923;28;20024;-75
2021/11/14 03:38:54;;;;;;;5.70;3.90;;;;;;;19.03;49.45;101753.97;5092562;28;20050;-75
2021/11/14 03:41:23;;;;;;;5.80;4.20;;;;;;;19.03;49.37;101759.25;5092407;28;20028;-74
2021/11/14 03:43:50;;;;;;;6.03;4.03;;;;;;;19.04;49.19;101757.44;5092792;28;20028;-75
2021/11/14 03:46:16;;;;;;;5.57;4.00;;;;;;;19.02;49.36;101760.19;5091775;28;20390;-75
2021/11/14 03:48:43;;;;;;;6.55;4.40;;;;;;;19.02;49.54;101762.00;5092805;28;20027;-75
2021/11/14 03:51:10;;;;;;;6.10;4.40;;;;;;;19.02;49.47;101762.84;5092613;28;20323;-74
2021/11/14 03:53:36;;;;;;;6.80;4.47;;;;;;;19.00;49.33;101762.09;5092066;28;20054;-74
2021/11/14 03:56:03;;;;;;;5.85;4.15;;;;;;;19.00;49.36;101766.56;5092606;28;20475;-76
2021/11/14 03:58:29;;;;;;;5.90;4.32;;;;;;;18.98;49.57;101771.13;5092974;28;20081;-74
2021/11/14 04:01:00;;;;;;;5.90;4.10;;;;;;;18.98;49.13;101768.47;5092027;28;20032;-75
2021/11/14 04:03:27;;;;;;;6.22;4.20;;;;;;;18.98;49.22;101779.88;5092890;28;20078;-74
2021/11/14 04:05:52;;;;;;;5.90;4.28;;;;;;;18.97;49.40;101778.19;5092574;28;20034;-75
2021/11/14 04:08:22;;;;;;;5.70;3.95;;;;;;;18.97;49.15;101777.34;5091548;28;20477;-75
2021/11/14 04:10:51;;;;;;;5.95;4.20;;;;;;;18.96;49.26;101779.16;5092376;28;20445;-73
2021/11/14 04:13:17;;;;;;;6.40;4.40;;;;;;;18.96;49.43;101784.44;5091340;28;20152;-75
2021/11/14 04:15:44;;;;;;;5.70;4.22;;;;;;;18.96;49.25;101786.22;5092660;28;20021;-75
2021/11/14 04:18:09;;;;;;;6.03;4.30;;;;;;;18.92;49.42;101782.94;5090945;28;20036;-76
2021/11/14 04:20:41;;;;;;;6.10;4.68;;;;;;;18.94;49.37;101791.59;5091632;28;20525;-75
2021/11/14 04:23:07;;;;;;;6.28;4.45;;;;;;;18.94;49.09;101794.25;5092097;28;20035;-76
2021/11/14 04:25:33;;;;;;;6.32;4.47;;;;;;;18.93;49.33;101795.22;5092243;28;20031;-77
2021/11/14 04:27:58;;;;;;;6.30;4.57;;;;;;;18.93;49.18;101789.06;5091298;28;20028;-75
2021/11/14 04:30:25;;;;;;;6.70;4.00;;;;;;;18.93;49.26;101796.97;5092739;28;20025;-75
2021/11/14 04:32:51;;;;;;;6.63;4.50;;;;;;;18.92;49.12;101798.78;5092655;28;20028;-74
2021/11/14 04:35:17;;;;;;;7.25;4.72;;;;;;;18.92;49.18;101803.25;5091561;28;20498;-75
2021/11/14 04:37:48;;;;;;;6.30;4.35;;;;;;;18.92;49.26;101804.06;5094184;28;20185;-74
2021/11/14 04:40:13;;;;;;;6.28;4.47;;;;;;;18.89;49.29;101801.66;5094925;28;20031;-74
2021/11/14 04:42:38;;;;;;;6.43;4.53;;;;;;;18.90;49.13;101800.69;5096067;28;20024;-75
2021/11/14 04:45:05;;;;;;;6.65;4.53;;;;;;;18.90;49.33;101805.97;5096283;28;20390;-74
2021/11/14 04:47:31;;;;;;;5.88;4.35;;;;;;;18.91;49.35;101806.81;5097901;28;20032;-74
2021/11/14 04:49:56;;;;;;;6.50;4.80;;;;;;;18.89;49.41;101803.44;5096181;28;20082;-76
2021/11/14 04:52:21;;;;;;;6.50;4.22;;;;;;;18.89;49.03;101801.66;5096817;28;20047;-75
2021/11/14 04:54:47;;;;;;;6.35;4.65;;;;;;;18.88;49.15;101807.03;5096500;28;20024;-75
2021/11/14 04:57:12;;;;;;;6.97;4.57;;;;;;;18.88;49.15;101810.50;5095378;28;20059;-75
2021/11/14 04:59:37;;;;;;;6.20;4.15;;;;;;;18.88;49.22;101807.88;5096288;28;20470;-75
2021/11/14 05:02:03;;;;;;;7.32;4.90;;;;;;;18.87;49.13;101806.19;5096080;28;20036;-75
2021/11/14 05:04:28;;;;;;;6.72;4.63;;;;;;;18.87;49.29;101810.63;5095325;28;20032;-75
2021/11/14 05:06:54;;;;;;;6.57;4.97;;;;;;;18.87;49.01;101818.53;5096398;28;20089;-75
2021/11/14 05:09:19;;;;;;;7.13;4.30;;;;;;;18.87;49.14;101818.53;5095930;28;20024;-74
2021/11/14 05:11:45;;;;;;;6.25;4.40;;;;;;;18.86;49.15;101820.34;5095065;28;20040;-75
2021/11/14 05:14:10;;;;;;;6.63;4.68;;;;;;;18.86;49.09;101820.34;5095627;28;20099;-75
2021/11/14 05:16:35;;;;;;;6.53;4.63;;;;;;;18.86;49.00;101830.91;5095177;28;20050;-76
2021/11/14 05:19:01;;;;;;;6.45;4.90;;;;;;;18.85;49.07;101824.78;5095561;28;20319;-75
2021/11/14 05:21:26;;;;;;;6.43;4.75;;;;;;;18.84;49.17;101832.81;5095986;28;20023;-75
2021/11/14 05:23:51;;;;;;;7.03;4.57;;;;;;;18.84;49.14;101832.81;5095102;28;20538;-75
2021/11/14 05:26:17;;;;;;;7.22;5.00;;;;;;;18.84;49.15;101841.56;5095473;28;20412;-75
2021/11/14 05:28:42;;;;;;;6.95;4.85;;;;;;;18.84;49.31;101838.09;5096067;28;20028;-75
2021/11/14 05:31:08;;;;;;;8.15;5.15;;;;;;;18.84;49.21;101848.66;5094368;28;20110;-75
2021/11/14 05:33:33;;;;;;;7.25;5.00;;;;;;;18.82;48.97;101851.38;5095697;28;20070;-74
2021/11/14 05:35:59;;;;;;;7.32;5.07;;;;;;;18.81;49.20;101857.59;5095239;28;20023;-75
2021/11/14 05:38:24;;;;;;;7.25;5.45;;;;;;;18.81;48.99;101860.25;5094710;28;20076;-74
2021/11/14 05:40:50;;;;;;;6.88;5.20;;;;;;;18.79;49.01;101854.22;5095444;28;20042;-73
2021/11/14 05:43:16;;;;;;;7.18;5.15;;;;;;;18.80;49.01;101858.56;5094951;28;20376;-75
2021/11/14 05:45:42;;;;;;;7.35;5.25;;;;;;;18.80;49.34;101866.50;5094555;28;20080;-76
2021/11/14 05:48:08;;;;;;;8.00;5.57;;;;;;;18.80;49.22;101863.84;5095034;28;20406;-75
2021/11/14 05:50:34;;;;;;;7.38;5.25;;;;;;;18.81;48.92;101875.25;5095302;28;20028;-74
2021/11/14 05:52:59;;;;;;;8.00;5.28;;;;;;;18.80;49.27;101873.53;5093590;28;20028;-75
2021/11/14 05:55:25;;;;;;;8.15;5.20;;;;;;;18.79;49.26;101870.06;5094973;28;20032;-74
2021/11/14 05:57:56;;;;;;;7.97;5.75;;;;;;;18.80;49.12;101884.97;5095340;28;20051;-74
2021/11/14 06:00:43;;;;;;;8.32;5.53;;;;;;;18.79;49.19;101879.78;5094439;28;20039;-74
2021/11/14 06:03:24;;;;;;;8.02;5.50;;;;;;;18.78;49.30;101878.09;5094720;28;20035;-74
2021/11/14 06:05:50;;;;;;;8.57;5.50;;;;;;;18.79;49.16;101882.44;5094185;28;20122;-75
2021/11/14 06:08:20;;;;;;;8.73;5.60;;;;;;;18.78;49.18;101883.38;5094886;28;20147;-74
2021/11/14 06:10:47;;;;;;;8.70;5.47;;;;;;;18.77;48.97;101887.81;5094954;28;20036;-74
2021/11/14 06:13:12;;;;;;;8.23;5.47;;;;;;;18.76;49.16;101893.22;5093887;28;20040;-74
2021/11/14 06:15:38;;;;;;;7.60;5.53;;;;;;;18.77;49.21;101901.03;5094742;28;20031;-74
2021/11/14 06:18:03;;;;;;;7.13;5.10;;;;;;;18.78;49.78;101902.69;5094328;28;20043;-75
2021/11/14 06:20:28;;;;;;;7.07;4.73;;;;;;;18.81;49.88;101896.38;5093720;28;20398;-75
2021/11/14 06:22:53;;;;;;;7.13;4.57;;;;;;;18.82;49.73;101901.56;5094770;28;20291;-76
2021/11/14 06:25:19;;;;;;;7.53;4.50;;;;;;;18.85;49.96;101900.53;5094235;28;20082;-75
2021/11/14 06:27:45;;;;;;;7.32;4.63;;;;;;;18.89;49.86;101915.22;5093896;28;20069;-76
2021/11/14 06:30:13;;;;;;;6.90;4.60;;;;;;;18.93;49.79;101910.56;5094158;28;20063;-75
2021/11/14 06:32:38;;;;;;;7.05;4.20;;;;;;;18.95;49.81;101913.97;5094525;28;20074;-75
2021/11/14 06:35:05;;;;;;;6.75;4.55;;;;;;;18.99;49.50;101920.72;5093060;28;20024;-75
2021/11/14 06:37:30;;;;;;;6.05;3.97;;;;;;;19.02;49.84;101918.72;5094048;28;20052;-74
2021/11/14 06:39:56;;;;;;;6.50;4.45;;;;;;;19.03;49.38;101914.28;5094392;28;20078;-75
2021/11/14 06:42:21;;;;;;;5.88;3.72;;;;;;;19.07;49.58;101917.56;5093542;28;20024;-74
2021/11/14 06:44:46;;;;;;;6.35;4.07;;;;;;;19.10;49.33;101925.28;5094145;28;20131;-74
2021/11/14 06:47:13;;;;;;;6.72;3.95;;;;;;;19.13;49.48;101927.72;5093795;28;20036;-74
2021/11/14 06:49:38;;;;;;;5.68;3.75;;;;;;;19.15;49.57;101934.59;5093228;28;20027;-74
2021/11/14 06:52:05;;;;;;;7.10;4.55;;;;;;;19.18;49.52;101938.81;5093549;28;20383;-74
2021/11/14 06:54:30;;;;;;;6.43;4.22;;;;;;;19.20;49.28;101934.25;5093864;28;20043;-75
2021/11/14 06:56:56;;;;;;;7.47;4.15;;;;;;;19.22;49.14;101945.59;5093067;28;20040;-73
2021/11/14 06:59:21;;;;;;;5.97;3.80;;;;;;;19.24;49.43;101948.13;5093776;28;20509;-74
2021/11/14 07:01:47;;;;;;;6.65;4.22;;;;;;;19.26;49.10;101954.16;5093611;28;20024;-73
2021/11/14 07:04:12;;;;;;;5.38;3.80;;;;;;;19.28;49.25;101960.16;5091616;28;20052;-73
2021/11/14 07:06:37;;;;;;;6.65;3.95;;;;;;;19.29;49.31;101964.50;5093927;28;20406;-73
2021/11/14 07:09:04;;;;;;;5.90;4.03;;;;;;;19.29;49.10;101964.50;5092972;28;20463;-74
2021/11/14 07:11:30;;;;;;;6.65;3.83;;;;;;;19.32;49.15;101969.59;5093289;28;20048;-73
2021/11/14 07:13:55;;;;;;;6.60;4.00;;;;;;;19.33;49.00;101972.13;5093282;28;20024;-74
2021/11/14 07:16:20;;;;;;;6.22;4.40;;;;;;;19.35;48.89;101969.38;5092492;28;20099;-75
2021/11/14 07:18:47;;;;;;;6.07;3.90;;;;;;;19.37;48.93;101975.38;5093276;28;20028;-75
2021/11/14 07:21:13;;;;;;;6.65;4.20;;;;;;;19.38;49.16;101979.75;5093003;28;20028;-73
2021/11/14 07:23:38;;;;;;;6.95;4.35;;;;;;;19.39;49.08;101984.06;5092954;28;20089;-73
2021/11/14 07:26:03;;;;;;;6.10;3.67;;;;;;;19.40;49.10;101996.31;5092980;28;20039;-75
2021/11/14 07:28:29;;;;;;;6.65;4.25;;;;;;;19.41;48.89;102000.69;5093496;28;20020;-74
2021/11/14 07:30:54;;;;;;;6.35;4.00;;;;;;;19.43;48.75;101997.94;5092724;28;20046;-75
2021/11/14 07:33:19;;;;;;;6.73;4.00;;;;;;;19.43;48.92;102001.41;5092846;28;20035;-75
2021/11/14 07:35:44;;;;;;;6.22;3.88;;;;;;;19.45;48.80;102006.59;5093462;28;20361;-74
2021/11/14 07:38:10;;;;;;;6.65;3.90;;;;;;;19.43;48.81;102008.50;5092072;28;20040;-73
2021/11/14 07:40:35;;;;;;;5.63;3.85;;;;;;;19.45;48.78;102009.25;5093129;28;20031;-74
2021/11/14 07:43:00;;;;;;;5.82;3.45;;;;;;;19.46;48.98;102008.28;5092891;28;20114;-74
2021/11/14 07:45:27;;;;;;;6.40;4.22;;;;;;;19.46;48.72;102019.72;5092362;28;20169;-74
2021/11/14 07:47:53;;;;;;;5.97;3.53;;;;;;;19.46;48.92;102017.06;5093038;28;20028;-75
2021/11/14 07:50:20;;;;;;;6.13;3.63;;;;;;;19.48;48.82;102028.38;5093000;28;20035;-73
2021/11/14 07:52:49;;;;;;;5.03;3.33;;;;;;;19.48;48.86;102033.66;5093247;28;20485;-77
2021/11/14 07:55:16;;;;;;;6.07;3.78;;;;;;;19.49;48.68;102042.47;5093098;28;20058;-74
2021/11/14 07:57:43;;;;;;;6.30;4.47;;;;;;;19.48;48.36;102044.22;5093236;28;20028;-74
2021/11/14 08:00:14;;;;;;;5.70;4.00;;;;;;;19.45;48.57;102047.09;5092434;28;20090;-76
2021/11/14 08:02:39;;;;;;;5.22;3.55;;;;;;;19.48;48.96;102057.44;5093605;28;20024;-70
2021/11/14 08:05:05;;;;;;;5.43;3.67;;;;;;;19.48;48.88;102057.44;5093080;28;20362;-76
2021/11/14 08:07:30;;;;;;;7.28;3.88;;;;;;;19.49;48.64;102060.97;5093303;28;20040;-74
2021/11/14 08:09:56;;;;;;;5.40;3.90;;;;;;;19.48;48.55;102064.56;5093564;28;20020;-73
2021/11/14 08:12:21;;;;;;;5.68;3.83;;;;;;;19.47;48.68;102066.34;5093265;28;20048;-73
2021/11/14 08:14:46;;;;;;;5.97;3.50;;;;;;;19.51;48.86;102066.97;5092823;28;20531;-77
2021/11/14 08:17:12;;;;;;;6.80;3.58;;;;;;;19.54;48.88;102072.91;5095701;28;20100;-74
2021/11/14 08:19:37;;;;;;;6.10;3.60;;;;;;;19.62;48.39;102071.53;5093843;28;20040;-78
2021/11/14 08:22:03;;;;;;;6.20;3.67;;;;;;;19.72;48.01;102072.59;5095098;28;20031;-79
2021/11/14 08:24:28;;;;;;;6.55;3.75;;;;;;;19.79;48.05;102080.97;5095137;28;20467;-79
2021/11/14 08:26:54;;;;;;;6.43;4.03;;;;;;;19.85;47.86;102077.91;5095061;28;20032;-76
2021/11/14 08:29:19;;;;;;;6.15;4.07;;;;;;;19.90;47.55;102087.25;5094079;28;20066;-77
2021/11/14 08:31:45;;;;;;;6.90;3.80;;;;;;;19.90;47.88;102086.38;5095131;28;20024;-76
2021/11/14 08:34:10;;;;;;;5.75;3.75;;;;;;;19.86;48.03;102092.84;5093766;28;20039;-75
2021/11/14 08:36:36;;;;;;;5.93;3.75;;;;;;;19.82;48.06;102092.22;5094690;28;20028;-79
2021/11/14 08:39:03;;;;;;;5.25;3.45;;;;;;;19.78;48.28;102096.00;5094417;28;20063;-74
2021/11/14 08:41:28;;;;;;;6.30;3.50;;;;;;;19.75;48.14;102114.72;5094079;28;20077;-74
2021/11/14 08:43:53;;;;;;;6.70;3.85;;;;;;;19.74;48.33;102113.00;5095065;28;20020;-76
2021/11/14 08:46:19;;;;;;;5.13;3.25;;;;;;;19.71;48.62;102119.38;5094620;28;20028;-69
2021/11/14 08:48:44;;;;;;;6.93;3.90;;;;;;;19.69;48.08;102125.69;5094956;28;20031;-75
2021/11/14 08:51:24;;;;;;;5.93;3.83;;;;;;;19.73;48.37;102125.38;5096169;28;20046;-71
2021/11/14 08:53:49;;;;;;;9.07;3.83;;;;;;;19.81;48.40;102129.34;5099117;28;20062;-78
2021/11/14 08:56:14;;;;;;;7.37;3.97;;;;;;;19.87;48.31;102128.94;5102354;28;20024;-80
2021/11/14 08:58:41;;;;;;;6.65;3.63;;;;;;;19.92;48.12;102127.66;5098583;28;20775;-75
2021/11/14 09:01:10;;;;;;;6.57;3.92;;;;;;;19.97;47.96;102132.63;5094886;28;20051;-73
2021/11/14 09:03:36;;;;;;;5.50;3.25;;;;;;;20.00;48.16;102129.78;5093107;28;20129;-76
2021/11/14 09:06:02;;;;;;;5.35;3.50;;;;;;;20.05;48.01;102140.06;5092961;28;20491;-75
2021/11/14 09:08:28;;;;;;;5.90;3.65;;;;;;;20.08;48.02;102153.06;5093302;28;20032;-73
2021/11/14 09:10:53;;;;;;;5.50;3.28;;;;;;;20.10;47.75;102154.63;5093169;28;20032;-75
2021/11/14 09:13:21;;;;;;;5.53;3.38;;;;;;;20.11;47.89;102148.41;5094133;28;20474;-71
2021/11/14 09:15:47;;;;;;;6.00;3.70;;;;;;;20.15;47.70;102150.84;5093238;28;20103;-73
2021/11/14 09:18:13;;;;;;;5.35;3.30;;;;;;;20.16;47.69;102150.72;5093121;28;20581;-72
2021/11/14 09:20:39;;;;;;;5.90;3.80;;;;;;;20.19;47.77;102153.16;5094204;28;20119;-74
2021/11/14 09:23:04;;;;;;;7.07;4.20;;;;;;;20.21;48.65;102156.53;5091836;28;20115;-72
2021/11/14 09:25:30;;;;;;;10.10;4.30;;;;;;;20.22;49.29;102165.31;5092814;28;20024;-73
2021/11/14 09:27:55;;;;;;;7.38;4.10;;;;;;;20.22;49.43;102163.53;5095983;28;20470;-79
2021/11/14 09:30:21;;;;;;;6.18;3.75;;;;;;;20.25;49.27;102170.41;5096853;28;20035;-74
2021/11/14 09:32:47;;;;;;;5.95;3.78;;;;;;;20.26;49.36;102175.59;5096540;28;20040;-76
2021/11/14 09:35:14;;;;;;;8.80;4.03;;;;;;;20.25;49.40;102178.34;5096880;28;20068;-75
2021/11/14 09:37:40;;;;;;;6.82;4.07;;;;;;;20.27;49.30;102176.47;5097005;28;20482;-78
2021/11/14 09:40:09;;;;;;;6.85;4.05;;;;;;;20.25;49.40;102176.56;5100799;28;20035;-74
2021/11/14 09:42:36;;;;;;;7.85;4.07;;;;;;;20.25;49.34;102181.00;5096486;28;20103;-70
2021/11/14 09:45:03;;;;;;;7.82;4.22;;;;;;;20.19;49.72;102187.59;5094461;28;20424;-73
2021/11/14 09:47:29;;;;;;;6.85;3.83;;;;;;;20.13;49.90;102189.81;5095764;28;20024;-73
2021/11/14 09:49:57;;;;;;;7.38;4.47;;;;;;;20.05;49.85;102193.81;5095382;28;20340;-73
2021/11/14 09:52:24;;;;;;;7.80;4.10;;;;;;;19.98;50.07;102189.03;5094421;28;20106;-75
2021/11/14 09:54:50;;;;;;;7.35;3.95;;;;;;;19.92;50.38;102190.31;5095816;28;20081;-76
2021/11/14 09:57:15;;;;;;;5.85;3.35;;;;;;;19.88;50.55;102194.94;5095052;28;20419;-70
2021/11/14 09:59:41;;;;;;;7.17;4.03;;;;;;;19.86;50.47;102190.72;5094743;28;20589;-74
2021/11/14 10:02:09;;;;;;;6.72;3.90;;;;;;;19.82;50.38;102191.88;5094894;28;20774;-74
2021/11/14 10:04:34;;;;;;;6.32;3.65;;;;;;;19.79;50.38;102194.72;5095235;28;20063;-72
2021/11/14 10:07:06;;;;;;;7.57;3.90;;;;;;;19.75;50.65;102200.19;5094098;28;20129;-74
2021/11/14 10:09:35;;;;;;;5.70;3.38;;;;;;;19.73;50.67;102195.97;5094907;28;20051;-76
2021/11/14 10:12:23;;;;;;;8.18;3.95;;;;;;;19.71;50.62;102198.72;5093656;28;20485;-72
2021/11/14 10:15:11;;;;;;;7.22;3.92;;;;;;;19.67;50.56;102199.03;5095137;28;20024;-74
2021/11/14 10:17:38;;;;;;;6.43;3.70;;;;;;;19.69;50.50;102202.41;5094813;28;20024;-76
2021/11/14 10:20:11;;;;;;;7.22;3.20;;;;;;;19.68;50.70;102208.66;5093519;28;20032;-76
2021/11/14 10:22:39;;;;;;;6.55;4.00;;;;;;;19.67;49.92;102207.78;5095091;28;20105;-75
2021/11/14 10:25:06;;;;;;;7.15;4.15;;;;;;;19.66;50.24;102215.81;5094556;28;20139;-76
2021/11/14 10:27:31;;;;;;;6.78;3.63;;;;;;;19.65;50.37;102212.34;5093866;28;20020;-76
2021/11/14 10:29:59;;;;;;;7.88;3.20;;;;;;;19.64;50.23;102215.09;5094476;28;20118;-75
2021/11/14 10:32:27;;;;;;;6.00;3.67;;;;;;;19.67;50.22;102218.38;5099200;28;20047;-76
2021/11/14 10:34:59;;;;;;;6.45;3.70;;;;;;;19.71;50.23;102230.44;5093895;28;20028;-71
2021/11/14 10:37:27;;;;;;;6.05;3.78;;;;;;;19.70;50.01;102220.81;5094108;28;20080;-72
2021/11/14 10:39:55;;;;;;;6.20;3.33;;;;;;;19.69;50.00;102224.44;5094390;28;20043;-70
2021/11/14 10:42:24;;;;;;;5.32;2.95;;;;;;;19.67;49.92;102230.75;5093269;28;20467;-69
2021/11/14 10:44:53;;;;;;;7.30;3.35;;;;;;;19.65;50.15;102225.56;5094225;28;20036;-72
2021/11/14 10:47:23;;;;;;;6.03;3.17;;;;;;;19.64;50.19;102237.09;5093055;28;20534;-70
2021/11/14 10:50:13;;;;;;;7.95;3.22;;;;;;;19.63;50.03;102231.88;5094255;28;20028;-72
2021/11/14 10:52:55;;;;;;;6.30;3.15;;;;;;;19.62;50.03;102235.50;5093982;28;20032;-70
2021/11/14 10:55:21;;;;;;;5.32;2.97;;;;;;;19.60;50.05;102237.38;5092840;28;20027;-69
2021/11/14 10:57:48;;;;;;;6.05;3.10;;;;;;;19.58;50.04;102233.06;5093967;28;20031;-70
2021/11/14 11:00:14;;;;;;;5.57;2.97;;;;;;;19.56;49.94;102240.22;5093575;28;20650;-69
2021/11/14 11:02:44;;;;;;;5.28;3.00;;;;;;;19.56;49.87;102231.47;5092861;28;20048;-70
2021/11/14 11:05:17;;;;;;;5.28;2.90;;;;;;;19.55;49.92;102238.56;5093516;28;20073;-71
2021/11/14 11:08:00;;;;;;;5.00;2.83;;;;;;;19.53;50.16;102235.13;5093547;28;20092;-72
2021/11/14 11:10:37;;;;;;;6.07;2.90;;;;;;;19.55;50.07;102237.69;5092802;28;20430;-71
2021/11/14 11:13:06;;;;;;;5.00;2.80;;;;;;;19.55;50.00;102241.19;5093116;28;20455;-69
2021/11/14 11:15:40;;;;;;;4.95;2.75;;;;;;;19.55;50.07;102246.47;5092693;28;20471;-69
2021/11/14 11:18:09;;;;;;;4.43;2.50;;;;;;;19.56;49.90;102244.69;5093074;28;20035;-70
2021/11/14 11:20:34;;;;;;;5.35;2.60;;;;;;;19.57;49.69;102254.31;5093442;28;20032;-70
2021/11/14 11:23:07;;;;;;;6.13;3.10;;;;;;;19.57;49.62;102262.25;5092528;28;20023;-74